Time;durP1;ratioP1;P1;durP2;ratioP2;P2;SDS_P1;SDS_P2;PMS_P1;PMS_P2;Temp;Humidity;BMP_temperature;BMP_pressure;BME280_temperature;BME280_humidity;BME280_pressure;Samples;Min_cycle;Max_cycle;Signal;HPM_P1;HPM_P2
2022/01/07 08:27:56;;;;;;;9.70;4.68;;;;;;;0.48;69.94;100475.16;5024307;28;105969;-72
2022/01/07 08:30:25;;;;;;;8.70;4.25;;;;;;;0.33;70.58;100472.56;5025021;27;106386;-69
2022/01/07 08:35:38;;;;;;;14.80;5.63;;;;;;;0.38;72.06;100480.13;5002163;28;106423;-66
2022/01/07 08:38:05;;;;;;;8.00;4.28;;;;;;;0.38;71.70;100472.25;5004347;28;105944;-70
2022/01/07 08:40:30;;;;;;;9.18;4.75;;;;;;;0.34;71.59;100483.88;5005417;28;106125;-70
2022/01/07 08:42:56;;;;;;;13.77;5.50;;;;;;;0.28;71.04;100479.88;5004344;28;106269;-66
2022/01/07 08:45:21;;;;;;;16.48;5.05;;;;;;;0.26;71.36;100483.50;5001814;28;107746;-66
2022/01/07 08:47:47;;;;;;;7.65;4.10;;;;;;;0.26;71.31;100481.75;5004022;28;105993;-69
2022/01/07 08:50:12;;;;;;;5.78;3.78;;;;;;;0.21;70.81;100478.56;5005415;28;106082;-68
2022/01/07 08:52:37;;;;;;;17.52;4.93;;;;;;;0.17;70.90;100477.09;5004598;28;105931;-69
2022/01/07 08:55:03;;;;;;;4.38;2.63;;;;;;;0.16;70.76;100471.00;5004082;28;116282;-74
2022/01/07 08:57:28;;;;;;;6.97;3.10;;;;;;;0.20;70.65;100466.41;5004145;28;106050;-66
2022/01/07 08:59:54;;;;;;;6.05;4.18;;;;;;;0.25;70.39;100463.50;5005708;28;105917;-62
2022/01/07 09:02:19;;;;;;;4.03;2.50;;;;;;;0.31;69.65;100471.81;5004748;28;106155;-63
2022/01/07 09:04:44;;;;;;;5.18;3.50;;;;;;;0.45;70.10;100465.72;5003055;28;107627;-62
2022/01/07 09:07:10;;;;;;;17.00;3.60;;;;;;;0.76;70.39;100465.50;5004191;28;105943;-62
2022/01/07 09:09:36;;;;;;;5.03;2.40;;;;;;;0.77;69.07;100467.19;5004676;28;106054;-62
2022/01/07 09:12:01;;;;;;;9.45;3.65;;;;;;;0.88;69.32;100466.47;5004288;28;106792;-63
2022/01/07 09:14:26;;;;;;;6.75;3.42;;;;;;;1.28;69.42;100462.03;5004085;28;105855;-63
2022/01/07 09:16:52;;;;;;;7.30;3.65;;;;;;;1.48;69.00;100462.47;5003774;28;105846;-64
2022/01/07 09:19:17;;;;;;;6.95;3.33;;;;;;;1.49;68.36;100451.00;5004978;28;106088;-63
2022/01/07 09:21:42;;;;;;;9.07;3.45;;;;;;;1.65;68.28;100456.03;5004651;28;106075;-63
2022/01/07 09:24:08;;;;;;;4.00;2.20;;;;;;;2.26;67.90;100456.16;5004229;28;105789;-63
2022/01/07 09:26:34;;;;;;;9.05;4.80;;;;;;;3.20;68.20;100445.78;5003998;28;106077;-62
2022/01/07 09:28:59;;;;;;;13.60;3.95;;;;;;;3.32;66.47;100444.00;5004752;28;105980;-66
2022/01/07 09:31:25;;;;;;;10.20;4.38;;;;;;;3.13;65.77;100449.81;5004899;28;106224;-66
2022/01/07 09:33:50;;;;;;;12.02;4.10;;;;;;;3.72;65.87;100440.94;5005315;28;106643;-73
2022/01/07 09:36:16;;;;;;;7.75;3.70;;;;;;;4.88;66.67;100434.28;5006001;28;106750;-76
2022/01/07 09:38:41;;;;;;;8.27;3.97;;;;;;;5.05;64.46;100435.53;4995041;28;106390;-75
2022/01/07 09:41:07;;;;;;;7.85;3.42;;;;;;;5.83;64.40;100427.19;4990609;28;106201;-65
2022/01/07 09:43:33;;;;;;;10.02;3.92;;;;;;;7.17;64.02;100431.09;4990173;28;106020;-72
2022/01/07 09:45:59;;;;;;;7.45;3.35;;;;;;;6.86;60.77;100433.09;4986910;28;106058;-68
2022/01/07 09:48:24;;;;;;;6.18;3.60;;;;;;;7.38;61.01;100427.44;4990781;28;106215;-69
2022/01/07 09:50:49;;;;;;;7.38;3.80;;;;;;;10.06;59.33;100426.72;4990391;28;106192;-74
2022/01/07 09:53:15;;;;;;;6.50;3.55;;;;;;;12.15;58.47;100420.94;4990829;28;105996;-66
2022/01/07 09:55:43;;;;;;;6.70;3.88;;;;;;;13.69;54.34;100417.34;4990766;28;106650;-70
2022/01/07 09:58:08;;;;;;;9.30;3.70;;;;;;;13.05;50.82;100413.28;4990243;28;105810;-70
2022/01/07 10:00:39;;;;;;;5.32;3.10;;;;;;;10.81;48.07;100415.25;4990459;28;106224;-68
2022/01/07 10:03:15;;;;;;;6.32;3.72;;;;;;;11.58;52.18;100410.47;4989700;28;106083;-65
2022/01/07 10:05:46;;;;;;;7.18;3.88;;;;;;;12.06;47.98;100402.47;4988554;28;106084;-75
2022/01/07 10:08:19;;;;;;;6.53;3.30;;;;;;;12.42;48.13;100388.56;4991101;28;105909;-71
2022/01/07 10:10:45;;;;;;;7.32;3.00;;;;;;;12.04;44.37;100399.13;4989906;28;106173;-76
2022/01/07 10:13:11;;;;;;;11.57;4.55;;;;;;;11.89;44.79;100388.31;4989698;28;107229;-79
2022/01/07 10:15:40;;;;;;;6.53;2.95;;;;;;;12.52;42.84;100376.63;4991608;28;106463;-74
2022/01/07 10:18:05;;;;;;;6.15;3.60;;;;;;;13.43;41.95;100389.19;4989930;28;105939;-73
2022/01/07 10:20:51;;;;;;;7.78;3.60;;;;;;;14.70;42.44;100377.28;4989860;28;105869;-74
2022/01/07 10:23:25;;;;;;;7.25;3.95;;;;;;;14.78;40.70;100386.25;4985439;28;106815;-74
2022/01/07 10:25:55;;;;;;;10.32;2.47;;;;;;;15.53;36.51;100379.31;4989147;28;105906;-71
2022/01/07 10:28:27;;;;;;;5.90;2.58;;;;;;;13.69;36.12;100385.22;4974910;28;106006;-69
2022/01/07 10:30:54;;;;;;;7.82;3.60;;;;;;;11.39;38.85;100377.84;4987277;28;105849;-64
2022/01/07 10:33:28;;;;;;;6.28;3.45;;;;;;;11.39;38.75;100385.84;4989590;28;105959;-77
2022/01/07 10:35:58;;;;;;;8.07;3.72;;;;;;;11.60;39.46;100376.44;4989980;28;105907;-74
2022/01/07 10:38:28;;;;;;;9.23;3.43;;;;;;;12.79;38.06;100360.22;4990543;28;106226;-73
2022/01/07 10:40:56;;;;;;;;;;;;;;;13.98;36.47;100362.09;4990639;28;106056;-70
2022/01/07 10:43:27;;;;;;;6.95;3.65;;;;;;;14.79;34.18;100359.22;4989807;28;106113;-70
2022/01/07 10:46:08;;;;;;;5.88;3.05;;;;;;;13.01;33.05;100358.50;4989739;28;106188;-73
2022/01/07 10:48:42;;;;;;;8.98;3.28;;;;;;;11.30;35.43;100370.84;4991210;28;106081;-72
2022/01/07 10:51:22;;;;;;;5.70;3.08;;;;;;;10.12;36.39;100358.69;4989075;28;106263;-72
2022/01/07 10:53:55;;;;;;;3.63;2.22;;;;;;;8.94;37.49;100369.94;4990054;28;105787;-69
2022/01/07 10:56:23;;;;;;;4.97;2.60;;;;;;;7.85;39.07;100373.53;4989425;28;106001;-67
2022/01/07 10:59:01;;;;;;;6.93;2.90;;;;;;;7.07;40.94;100383.44;4990208;28;106345;-72
2022/01/07 11:01:28;;;;;;;5.13;2.78;;;;;;;6.08;41.40;100373.84;4989394;28;105995;-71
2022/01/07 11:03:58;;;;;;;10.25;2.83;;;;;;;5.42;43.07;100377.78;4989447;28;106637;-66
2022/01/07 11:06:26;;;;;;;6.45;2.65;;;;;;;5.05;43.91;100375.63;4989710;28;106111;-72
2022/01/07 11:08:54;;;;;;;9.27;3.85;;;;;;;4.86;44.29;100370.25;4990283;28;106109;-73
2022/01/07 11:11:21;;;;;;;10.52;3.15;;;;;;;4.71;44.83;100362.63;4989661;28;106143;-70
2022/01/07 11:13:47;;;;;;;7.63;3.28;;;;;;;4.83;45.51;100357.31;4988937;28;105887;-67
2022/01/07 11:16:12;;;;;;;5.72;2.50;;;;;;;4.95;45.18;100364.19;4989072;28;105936;-65
2022/01/07 11:18:40;;;;;;;7.32;3.75;;;;;;;5.13;44.93;100358.31;4990023;28;106063;-67
2022/01/07 11:21:06;;;;;;;6.32;2.47;;;;;;;5.53;45.07;100355.72;4988943;28;106053;-70
2022/01/07 11:23:37;;;;;;;6.50;3.08;;;;;;;6.38;43.83;100350.91;4988925;28;106585;-76
2022/01/07 11:26:11;;;;;;;6.68;3.05;;;;;;;7.41;43.71;100348.47;4988785;28;106064;-68
2022/01/07 11:28:53;;;;;;;8.68;3.35;;;;;;;8.43;41.73;100340.44;4989988;28;105838;-70
2022/01/07 11:31:19;;;;;;;6.40;3.20;;;;;;;9.88;40.55;100341.66;4989537;28;105833;-67
2022/01/07 11:33:44;;;;;;;7.88;3.13;;;;;;;10.79;37.91;100342.59;4989257;28;106113;-70
2022/01/07 11:36:11;;;;;;;5.90;2.67;;;;;;;10.03;37.28;100333.88;4988641;28;105878;-72
2022/01/07 11:38:39;;;;;;;7.75;3.38;;;;;;;9.63;38.67;100336.25;4971449;28;106013;-67
2022/01/07 11:41:09;;;;;;;7.00;3.03;;;;;;;9.58;38.84;100324.44;4988678;28;106112;-73
2022/01/07 11:43:41;;;;;;;9.25;3.10;;;;;;;9.80;39.38;100326.50;4988218;28;106657;-70
2022/01/07 11:46:27;;;;;;;6.00;2.30;;;;;;;9.26;37.74;100328.63;4988284;28;106242;-77
2022/01/07 11:48:54;;;;;;;8.38;3.80;;;;;;;8.40;39.19;100316.88;4989416;28;106104;-72
2022/01/07 11:51:21;;;;;;;6.45;3.30;;;;;;;8.81;40.03;100314.56;4989293;28;106190;-74
2022/01/07 11:53:49;;;;;;;10.55;3.38;;;;;;;9.43;38.79;100311.75;4989324;28;106301;-79
2022/01/07 11:56:17;;;;;;;8.50;3.05;;;;;;;10.08;38.57;100312.91;4990272;28;105936;-73
2022/01/07 11:58:51;;;;;;;9.38;3.88;;;;;;;10.83;37.52;100311.13;4989213;28;106120;-74
2022/01/07 12:01:26;;;;;;;7.97;3.80;;;;;;;11.10;37.46;100303.72;4988770;28;105850;-72
2022/01/07 12:03:53;;;;;;;8.50;4.50;;;;;;;10.75;36.57;100309.31;4987881;28;105886;-80
2022/01/07 12:06:24;;;;;;;8.27;4.20;;;;;;;10.32;36.94;100303.31;4987639;28;106859;-76
2022/01/07 12:08:56;;;;;;;6.95;3.67;;;;;;;9.04;38.48;100304.25;4989615;28;105838;-74
2022/01/07 12:11:22;;;;;;;7.57;3.75;;;;;;;8.30;40.05;100298.38;4989207;28;105839;-71
2022/01/07 12:13:48;;;;;;;7.72;3.90;;;;;;;7.72;40.05;100307.56;4988577;28;105838;-75
2022/01/07 12:16:17;;;;;;;8.75;4.13;;;;;;;7.31;41.28;100297.31;4989055;28;105815;-79
2022/01/07 12:18:42;;;;;;;7.95;3.45;;;;;;;6.89;41.46;100292.44;4988972;28;106400;-74
2022/01/07 12:21:08;;;;;;;7.72;3.85;;;;;;;6.39;41.89;100290.88;4988950;28;106717;-79
2022/01/07 12:23:33;;;;;;;10.60;4.13;;;;;;;5.96;43.15;100282.38;4989147;28;106001;-70
2022/01/07 12:26:03;;;;;;;11.32;4.57;;;;;;;5.75;43.79;100279.81;4989054;28;106137;-70
2022/01/07 12:28:35;;;;;;;12.13;4.57;;;;;;;5.30;44.48;100282.91;4989632;28;105852;-70
2022/01/07 12:31:09;;;;;;;7.85;4.18;;;;;;;4.97;44.84;100277.75;4988256;28;106064;-72
2022/01/07 12:33:35;;;;;;;10.27;4.38;;;;;;;4.63;45.18;100266.63;4986752;28;106668;-70
2022/01/07 12:36:01;;;;;;;6.65;3.35;;;;;;;4.39;46.28;100268.53;4987802;28;106329;-67
2022/01/07 12:38:26;;;;;;;9.38;3.65;;;;;;;4.25;46.60;100263.56;4989610;28;105824;-70
2022/01/07 12:40:54;;;;;;;11.23;3.95;;;;;;;4.22;46.61;100269.97;4988178;28;106219;-76
2022/01/07 12:43:21;;;;;;;5.72;2.90;;;;;;;4.23;47.02;100257.59;4987784;28;105944;-69
2022/01/07 12:46:05;;;;;;;6.28;2.80;;;;;;;4.29;46.98;100265.03;4987118;28;106692;-69
2022/01/07 12:48:37;;;;;;;8.75;3.47;;;;;;;4.29;47.15;100258.88;4988723;28;106246;-73
2022/01/07 12:51:04;;;;;;;9.63;4.22;;;;;;;4.30;47.33;100255.28;4986613;28;106151;-70
2022/01/07 12:53:30;;;;;;;7.47;3.88;;;;;;;4.32;47.12;100253.34;4985390;28;106216;-68
2022/01/07 12:55:55;;;;;;;7.80;3.67;;;;;;;4.34;47.21;100259.34;4986638;28;106071;-73
2022/01/07 12:58:27;;;;;;;8.45;3.50;;;;;;;4.34;47.44;100246.16;4987548;28;106053;-82
2022/01/07 13:00:53;;;;;;;8.20;3.63;;;;;;;4.30;47.54;100250.84;4987130;28;106215;-79
2022/01/07 13:03:25;;;;;;;7.97;3.90;;;;;;;4.23;47.86;100255.78;4988059;28;106064;-76
2022/01/07 13:05:51;;;;;;;6.82;3.38;;;;;;;4.17;47.92;100252.81;4988288;28;106211;-72
2022/01/07 13:08:18;;;;;;;13.32;4.45;;;;;;;4.07;48.11;100247.47;4988778;28;106184;-80
2022/01/07 13:10:47;;;;;;;10.95;4.32;;;;;;;3.92;48.07;100241.66;4988310;28;106431;-69
2022/01/07 13:13:22;;;;;;;12.18;4.90;;;;;;;3.82;48.88;100241.59;4988383;28;106438;-68
2022/01/07 13:15:53;;;;;;;10.20;4.43;;;;;;;3.70;49.08;100242.59;4991631;28;106100;-72
2022/01/07 13:18:28;;;;;;;8.65;3.60;;;;;;;3.55;49.79;100228.88;4990114;28;106080;-68
2022/01/07 13:21:11;;;;;;;10.55;4.78;;;;;;;3.49;49.96;100230.19;4990332;28;105878;-68
2022/01/07 13:23:42;;;;;;;9.45;5.15;;;;;;;3.41;50.51;100231.78;4990048;28;105897;-64
2022/01/07 13:26:09;;;;;;;14.50;4.85;;;;;;;3.35;50.51;100226.03;4990134;28;106063;-66
2022/01/07 13:28:37;;;;;;;11.40;4.75;;;;;;;3.31;50.69;100219.34;4991747;28;106040;-77
2022/01/07 13:31:04;;;;;;;6.57;3.22;;;;;;;3.17;50.84;100238.88;4991344;28;105803;-75
2022/01/07 13:33:30;;;;;;;8.63;3.80;;;;;;;3.04;51.12;100232.91;4988593;28;105913;-69
2022/01/07 13:36:04;;;;;;;8.85;3.58;;;;;;;2.96;50.99;100233.50;4990030;28;106064;-75
2022/01/07 13:38:29;;;;;;;6.72;3.53;;;;;;;2.86;51.86;100224.66;4991378;28;106003;-68
2022/01/07 13:41:04;;;;;;;6.50;3.00;;;;;;;2.74;51.62;100230.88;4989116;28;106409;-72
2022/01/07 13:43:31;;;;;;;8.10;3.13;;;;;;;2.64;52.18;100233.38;4990027;28;106310;-71
2022/01/07 13:46:16;;;;;;;9.15;3.90;;;;;;;2.52;52.03;100235.97;4989738;28;105969;-73
2022/01/07 13:48:58;;;;;;;6.82;3.17;;;;;;;2.45;52.81;100229.50;4989329;28;106194;-72
2022/01/07 13:51:26;;;;;;;9.93;4.00;;;;;;;2.39;52.90;100234.41;4993791;28;106189;-66
2022/01/07 13:54:16;;;;;;;9.27;4.22;;;;;;;2.27;53.20;100221.25;5006628;28;106802;-67
2022/01/07 13:56:56;;;;;;;8.13;2.97;;;;;;;2.14;53.02;100223.94;5001273;28;106407;-74
2022/01/07 13:59:21;;;;;;;8.23;3.57;;;;;;;1.98;53.66;100221.63;4996398;28;105999;-76
2022/01/07 14:02:00;;;;;;;6.80;2.17;;;;;;;1.85;54.06;100229.56;5006108;28;106368;-65
2022/01/07 14:04:48;;;;;;;9.02;3.67;;;;;;;1.73;54.47;100224.38;4997340;28;106250;-66
2022/01/07 14:07:29;;;;;;;6.10;3.97;;;;;;;1.61;54.87;100213.81;4994850;28;106009;-80
2022/01/07 14:10:00;;;;;;;10.82;4.22;;;;;;;1.51;54.86;100216.28;4978347;28;106045;-76
2022/01/07 14:12:25;;;;;;;8.23;4.00;;;;;;;1.43;55.42;100205.50;5001521;28;106277;-68
2022/01/07 14:15:03;;;;;;;9.27;4.10;;;;;;;1.34;55.29;100201.75;5000777;28;107703;-70
2022/01/07 14:17:30;;;;;;;16.25;5.97;;;;;;;1.29;55.52;100203.88;4992404;28;106380;-68
2022/01/07 14:19:57;;;;;;;6.95;3.60;;;;;;;1.23;55.88;100196.44;5005786;28;106111;-71
2022/01/07 14:22:22;;;;;;;8.80;4.70;;;;;;;1.20;56.18;100194.00;4997136;28;106188;-68
2022/01/07 14:24:48;;;;;;;9.77;4.38;;;;;;;1.17;56.38;100194.25;4998431;28;106701;-68
2022/01/07 14:27:27;;;;;;;6.07;3.70;;;;;;;1.11;56.57;100186.81;5002868;28;105920;-71
2022/01/07 14:29:53;;;;;;;10.07;3.72;;;;;;;1.05;56.96;100184.63;4976528;28;106065;-70
2022/01/07 14:32:20;;;;;;;8.25;4.25;;;;;;;0.98;56.67;100190.28;5000408;28;106648;-68
2022/01/07 14:34:46;;;;;;;4.25;2.65;;;;;;;0.94;57.04;100183.59;4998171;28;107799;-73
2022/01/07 14:37:11;;;;;;;6.18;3.33;;;;;;;0.88;57.26;100177.97;4993303;28;106802;-71
2022/01/07 14:39:36;;;;;;;7.35;3.67;;;;;;;0.83;57.40;100180.88;5006806;28;106243;-69
2022/01/07 14:42:02;;;;;;;5.28;3.55;;;;;;;0.79;57.68;100175.03;4992568;28;106257;-69
2022/01/07 14:44:27;;;;;;;13.45;4.30;;;;;;;0.75;57.78;100172.72;5000582;28;106694;-74
2022/01/07 14:46:53;;;;;;;8.15;4.22;;;;;;;0.70;57.94;100180.91;5000750;28;105959;-71
2022/01/07 14:49:18;;;;;;;9.07;3.35;;;;;;;0.67;58.10;100179.34;4994425;28;106005;-73
2022/01/07 14:51:44;;;;;;;8.48;3.88;;;;;;;0.63;58.10;100180.50;5005599;28;106389;-74
2022/01/07 14:54:09;;;;;;;7.28;4.22;;;;;;;0.63;58.34;100174.41;4993936;28;107074;-75
2022/01/07 14:56:34;;;;;;;14.27;4.65;;;;;;;0.58;58.14;100163.41;5000371;28;106124;-67
2022/01/07 14:59:00;;;;;;;8.90;4.32;;;;;;;0.54;58.51;100170.66;5002482;28;105995;-70
2022/01/07 15:01:25;;;;;;;6.80;3.60;;;;;;;0.55;58.57;100171.47;4991577;28;106299;-71
2022/01/07 15:03:50;;;;;;;9.25;4.65;;;;;;;0.51;58.57;100165.63;5005346;28;106024;-75
2022/01/07 15:06:16;;;;;;;7.78;3.90;;;;;;;0.48;58.72;100160.59;4995863;28;106489;-67
2022/01/07 15:08:41;;;;;;;9.38;4.40;;;;;;;0.43;58.79;100154.84;4999634;28;106037;-72
2022/01/07 15:11:06;;;;;;;6.88;3.13;;;;;;;0.46;59.34;100152.00;5000480;28;106284;-65
2022/01/07 15:13:32;;;;;;;12.07;5.13;;;;;;;0.42;59.03;100150.53;4991843;28;106575;-71
2022/01/07 15:18:23;;;;;;;8.98;3.67;;;;;;;0.42;59.71;100145.28;4996923;28;106163;-77
2022/01/07 15:20:49;;;;;;;6.15;3.85;;;;;;;0.37;59.90;100148.25;4996990;28;106168;-72
2022/01/07 15:23:15;;;;;;;9.85;5.22;;;;;;;0.34;60.09;100140.56;5002947;28;106576;-73
2022/01/07 15:25:40;;;;;;;15.15;6.50;;;;;;;0.30;60.20;100137.34;4989944;28;106259;-75
2022/01/07 15:28:06;;;;;;;12.88;6.65;;;;;;;0.26;60.15;100129.78;5003799;28;106039;-68
2022/01/07 15:30:31;;;;;;;10.32;5.82;;;;;;;0.22;60.19;100134.41;4997189;28;106232;-68
2022/01/07 15:32:57;;;;;;;9.90;5.03;;;;;;;0.20;60.47;100138.06;4996560;28;106873;-65
2022/01/07 15:35:24;;;;;;;13.05;6.07;;;;;;;0.17;60.78;100141.72;4987971;28;105907;-70
2022/01/07 15:37:50;;;;;;;9.75;4.25;;;;;;;0.15;60.56;100143.59;5005830;28;105932;-66
2022/01/07 15:40:16;;;;;;;12.40;6.38;;;;;;;0.13;60.99;100132.41;4995055;28;105790;-67
2022/01/07 15:42:42;;;;;;;10.50;5.50;;;;;;;0.08;61.17;100132.72;4997653;28;106424;-66
2022/01/07 15:45:08;;;;;;;11.68;5.40;;;;;;;0.08;61.30;100142.34;5002247;28;105929;-67
2022/01/07 15:47:35;;;;;;;13.05;4.72;;;;;;;0.08;61.39;100131.88;4990462;28;105909;-68
2022/01/07 15:50:02;;;;;;;11.20;4.82;;;;;;;0.06;61.62;100126.75;5003614;28;106243;-68
2022/01/07 15:52:27;;;;;;;8.02;4.03;;;;;;;0.05;61.84;100129.47;4987765;28;106015;-69
2022/01/07 15:54:57;;;;;;;11.98;4.72;;;;;;;0.07;62.01;100143.28;4999067;28;105884;-72
2022/01/07 15:57:22;;;;;;;10.43;5.20;;;;;;;0.07;62.10;100133.66;4992770;28;107153;-68
2022/01/07 15:59:48;;;;;;;12.45;4.78;;;;;;;0.05;62.05;100132.09;5004365;28;106384;-66
2022/01/07 16:02:13;;;;;;;5.00;3.67;;;;;;;0.05;62.03;100121.59;4993536;28;108457;-66
2022/01/07 16:04:38;;;;;;;9.98;4.72;;;;;;;0.07;61.97;100130.19;4993369;28;106069;-69
2022/01/07 16:07:04;;;;;;;11.23;3.75;;;;;;;0.05;61.68;100122.44;4988424;28;106517;-65
2022/01/07 16:09:29;;;;;;;6.70;4.22;;;;;;;0.07;61.71;100128.44;4988253;28;106579;-66
2022/01/07 16:11:55;;;;;;;7.65;4.47;;;;;;;0.07;61.84;100125.81;4987725;28;105854;-72
2022/01/07 16:14:20;;;;;;;8.43;4.60;;;;;;;0.06;62.09;100123.28;4986461;28;108609;-68
2022/01/07 16:16:45;;;;;;;5.28;3.45;;;;;;;0.08;61.81;100119.63;4989098;28;105890;-69
2022/01/07 16:19:10;;;;;;;8.48;3.65;;;;;;;0.10;61.60;100135.25;4987818;28;105936;-67
2022/01/07 16:21:37;;;;;;;6.72;3.20;;;;;;;0.12;61.48;100120.25;4987815;28;108229;-66
2022/01/07 16:24:03;;;;;;;2.90;2.33;;;;;;;0.13;61.36;100124.53;4987284;28;105912;-65
2022/01/07 16:26:30;;;;;;;6.03;2.80;;;;;;;0.13;61.14;100132.41;4988052;28;106132;-66
2022/01/07 16:28:55;;;;;;;7.75;2.42;;;;;;;0.14;61.17;100121.81;4987348;28;106640;-65
2022/01/07 16:31:20;;;;;;;12.75;3.70;;;;;;;0.15;60.94;100105.16;4987573;28;106057;-71
2022/01/07 16:33:48;;;;;;;8.05;4.20;;;;;;;0.15;60.64;100110.41;4987437;28;105780;-64
2022/01/07 16:36:15;;;;;;;3.90;2.40;;;;;;;0.19;60.93;100104.94;4988173;28;105884;-65
2022/01/07 16:38:40;;;;;;;7.53;2.92;;;;;;;0.19;60.59;100105.78;4987119;28;106751;-68
2022/01/07 16:41:06;;;;;;;5.45;2.75;;;;;;;0.20;60.18;100098.78;4987527;28;105869;-66
2022/01/07 16:43:31;;;;;;;6.50;1.85;;;;;;;0.21;60.00;100101.28;4987447;28;106406;-66
2022/01/07 16:45:57;;;;;;;4.07;2.45;;;;;;;0.22;59.83;100104.72;4987384;28;105879;-70
2022/01/07 16:48:22;;;;;;;4.28;2.53;;;;;;;0.24;59.73;100093.19;4989130;28;106154;-68
2022/01/07 16:50:47;;;;;;;6.55;3.30;;;;;;;0.24;59.48;100093.19;4990793;28;105903;-67
2022/01/07 16:53:13;;;;;;;3.22;2.22;;;;;;;0.27;59.06;100095.59;4990492;28;106206;-70
2022/01/07 16:55:39;;;;;;;5.47;2.10;;;;;;;0.27;58.93;100095.59;4991863;28;105800;-70
2022/01/07 16:58:04;;;;;;;6.85;3.17;;;;;;;0.29;58.86;100095.53;4991597;28;106142;-69
2022/01/07 17:00:30;;;;;;;7.40;2.65;;;;;;;0.29;58.64;100092.91;4990805;28;105844;-65
2022/01/07 17:02:55;;;;;;;3.13;2.15;;;;;;;0.30;58.21;100105.88;4991708;28;106677;-74
2022/01/07 17:05:21;;;;;;;6.57;3.35;;;;;;;0.30;58.25;100090.16;4992111;28;105899;-70
2022/01/07 17:07:46;;;;;;;5.20;2.55;;;;;;;0.28;57.87;100101.69;4991245;28;106202;-70
2022/01/07 18:19:07;;;;;;;7.55;3.90;;;;;;;-0.62;56.49;100064.97;5024003;28;106452;-67
2022/01/07 18:21:33;;;;;;;5.13;3.50;;;;;;;-0.64;57.14;100072.94;5022951;28;105964;-67
2022/01/07 18:23:58;;;;;;;4.20;2.50;;;;;;;-0.60;57.58;100070.94;5021947;28;106302;-65
2022/01/07 18:26:24;;;;;;;6.45;3.42;;;;;;;-0.53;57.57;100069.63;5022446;28;106081;-67
2022/01/07 18:28:50;;;;;;;7.30;3.80;;;;;;;-0.50;57.52;100077.25;5022863;28;106092;-69
2022/01/07 18:31:15;;;;;;;8.88;4.47;;;;;;;-0.46;57.48;100073.50;5024043;27;106074;-68
2022/01/07 18:33:40;;;;;;;9.77;4.78;;;;;;;-0.43;57.58;100080.31;5023435;27;106102;-68
2022/01/07 18:36:06;;;;;;;10.63;4.15;;;;;;;-0.39;57.32;100082.59;5022467;27;106123;-69
2022/01/07 18:38:33;;;;;;;10.73;4.82;;;;;;;-0.37;56.74;100072.03;5022986;27;106563;-69
2022/01/07 18:40:59;;;;;;;7.13;3.17;;;;;;;-0.36;56.90;100071.91;5024114;27;105997;-70
2022/01/07 18:43:25;;;;;;;8.00;3.85;;;;;;;-0.34;56.45;100066.59;5023287;27;106200;-71
2022/01/07 18:45:51;;;;;;;9.75;5.03;;;;;;;-0.36;56.67;100069.28;5022884;27;105887;-70
2022/01/07 18:48:17;;;;;;;7.43;3.58;;;;;;;-0.37;56.73;100072.88;5022827;28;106792;-69
2022/01/07 18:50:42;;;;;;;16.02;5.25;;;;;;;-0.38;56.69;100073.00;5024562;28;106329;-67
2022/01/07 18:53:08;;;;;;;10.80;4.82;;;;;;;-0.39;56.73;100068.69;5023537;27;106094;-68
2022/01/07 18:55:34;;;;;;;5.88;2.83;;;;;;;-0.41;55.88;100074.03;5023296;27;107139;-69
2022/01/07 18:58:00;;;;;;;10.55;4.47;;;;;;;-0.40;56.04;100070.44;5022772;27;106370;-73
2022/01/07 19:00:26;;;;;;;8.90;3.90;;;;;;;-0.39;56.25;100066.91;5023541;27;105999;-67
2022/01/07 19:02:51;;;;;;;9.63;3.65;;;;;;;-0.40;56.00;100062.59;5022952;28;106423;-67
2022/01/07 19:05:17;;;;;;;4.10;2.13;;;;;;;-0.38;55.72;100079.06;5022752;27;106078;-71
2022/01/07 19:07:44;;;;;;;8.07;4.38;;;;;;;-0.37;55.24;100067.66;5021432;27;107913;-73
2022/01/07 19:10:10;;;;;;;7.43;4.10;;;;;;;-0.39;55.89;100077.38;5023444;28;106472;-68
2022/01/07 19:12:35;;;;;;;5.13;2.45;;;;;;;-0.38;55.15;100073.00;5022682;27;106395;-71
2022/01/07 19:15:01;;;;;;;11.55;4.78;;;;;;;-0.39;55.26;100076.53;5020875;28;108134;-69
2022/01/07 19:17:26;;;;;;;8.95;5.07;;;;;;;-0.43;55.50;100068.03;5021979;28;106033;-70
2022/01/07 19:19:52;;;;;;;5.15;3.80;;;;;;;-0.44;55.47;100073.38;5023117;27;106648;-71
2022/01/07 19:22:17;;;;;;;8.48;3.88;;;;;;;-0.47;55.26;100063.13;5021006;28;106289;-72
2022/01/07 19:24:43;;;;;;;5.88;2.42;;;;;;;-0.49;55.49;100062.38;5022438;28;105915;-72
2022/01/07 19:27:08;;;;;;;10.07;3.45;;;;;;;-0.52;55.56;100058.19;5022898;28;106741;-70
2022/01/07 19:29:34;;;;;;;7.75;4.78;;;;;;;-0.55;55.50;100064.47;5015867;27;106143;-69
2022/01/07 19:31:59;;;;;;;9.15;5.05;;;;;;;-0.57;55.80;100047.19;5009619;28;106365;-72
2022/01/07 19:34:25;;;;;;;8.45;4.50;;;;;;;-0.60;55.67;100052.63;5009075;28;106789;-69
2022/01/07 19:36:51;;;;;;;7.97;3.50;;;;;;;-0.62;55.80;100052.72;5008747;28;106132;-68
2022/01/07 19:39:17;;;;;;;6.70;3.10;;;;;;;-0.62;55.91;100049.28;5010462;28;106076;-72
2022/01/07 19:41:42;;;;;;;5.57;3.45;;;;;;;-0.63;56.15;100047.59;5009687;28;106231;-70
2022/01/07 19:44:11;;;;;;;4.88;3.08;;;;;;;-0.64;55.48;100045.91;5007836;28;106209;-71
2022/01/07 19:46:40;;;;;;;8.40;3.17;;;;;;;-0.65;55.74;100050.31;5007300;28;107814;-71
2022/01/07 19:49:09;;;;;;;6.68;3.63;;;;;;;-0.66;55.63;100058.28;5009990;28;107048;-70
2022/01/07 19:51:35;;;;;;;9.65;3.63;;;;;;;-0.68;55.57;100050.53;5009412;28;106238;-70
2022/01/07 19:54:01;;;;;;;8.60;3.80;;;;;;;-0.69;56.17;100048.84;5008999;28;106062;-69
2022/01/07 19:56:26;;;;;;;8.27;4.07;;;;;;;-0.69;56.07;100049.66;5009277;28;105990;-69
2022/01/07 19:58:51;;;;;;;11.20;4.35;;;;;;;-0.68;56.14;100050.53;5008411;28;106136;-70
2022/01/07 20:01:17;;;;;;;10.48;3.95;;;;;;;-0.72;55.75;100054.28;5009065;28;106465;-75
2022/01/07 20:03:42;;;;;;;8.23;4.00;;;;;;;-0.73;56.13;100045.59;5008572;28;105985;-66
2022/01/07 20:06:07;;;;;;;6.13;3.60;;;;;;;-0.70;55.57;100068.94;5008754;28;106556;-64
2022/01/07 20:08:33;;;;;;;6.47;3.78;;;;;;;-0.71;55.90;100048.94;5009565;28;106086;-64
2022/01/07 20:10:58;;;;;;;4.28;3.88;;;;;;;-0.71;56.05;100042.88;5008699;28;107128;-64
2022/01/07 20:13:24;;;;;;;3.88;2.75;;;;;;;-0.70;55.88;100039.31;4999079;28;106165;-64
2022/01/07 20:15:50;;;;;;;6.32;3.88;;;;;;;-0.70;55.57;100034.94;4988680;28;107224;-64
2022/01/07 20:18:15;;;;;;;7.55;3.75;;;;;;;-0.66;55.33;100032.94;4989305;28;106283;-63
2022/01/07 20:20:41;;;;;;;7.05;2.72;;;;;;;-0.66;55.78;100032.09;4989221;28;106308;-63
2022/01/07 20:23:06;;;;;;;7.35;3.00;;;;;;;-0.69;55.31;100026.13;4988831;28;106342;-64
2022/01/07 20:25:32;;;;;;;5.65;3.95;;;;;;;-0.66;55.18;100026.88;4988044;28;106108;-64
2022/01/07 20:27:58;;;;;;;6.40;2.88;;;;;;;-0.69;55.09;100028.75;4989404;28;106452;-64
2022/01/07 20:30:24;;;;;;;5.50;2.67;;;;;;;-0.68;55.61;100027.00;4988646;28;106498;-66
2022/01/07 20:32:52;;;;;;;7.63;3.20;;;;;;;-0.66;55.46;100021.66;4986850;28;106758;-67
2022/01/07 20:35:18;;;;;;;4.75;2.58;;;;;;;-0.68;55.26;100021.75;4988148;28;105963;-67
2022/01/07 20:37:44;;;;;;;4.20;2.15;;;;;;;-0.70;55.31;100011.41;4988712;28;106651;-67
2022/01/07 20:40:14;;;;;;;7.05;3.20;;;;;;;-0.71;55.80;100017.56;4987867;28;106174;-67
2022/01/07 20:42:41;;;;;;;7.47;3.72;;;;;;;-0.73;55.56;100022.03;4988081;28;105961;-65
2022/01/07 20:45:07;;;;;;;6.25;2.85;;;;;;;-0.75;55.70;100029.16;4988477;28;105866;-65
2022/01/07 20:47:33;;;;;;;7.10;3.28;;;;;;;-0.75;56.07;100012.63;4989068;28;106383;-64
2022/01/07 20:49:59;;;;;;;7.40;4.18;;;;;;;-0.76;55.97;100016.19;4987718;28;106915;-67
2022/01/07 20:52:26;;;;;;;7.38;3.47;;;;;;;-0.80;55.85;100005.09;4987967;28;106098;-67
2022/01/07 20:54:51;;;;;;;5.32;3.00;;;;;;;-0.81;56.39;100008.63;4987608;28;106083;-70
2022/01/07 20:57:17;;;;;;;6.72;2.78;;;;;;;-0.83;56.38;100013.13;4988469;28;106444;-64
2022/01/07 20:59:42;;;;;;;7.75;3.47;;;;;;;-0.81;56.16;100003.41;4988063;28;106224;-66
2022/01/07 21:02:08;;;;;;;5.85;2.53;;;;;;;-0.81;56.31;100023.50;4986765;28;106682;-65
2022/01/07 21:04:33;;;;;;;4.80;3.17;;;;;;;-0.83;56.40;100026.22;4987651;28;106061;-65